Latest Weather Observations for East Sale

IDV60801

Issued at 9:31 pm EST Tuesday 21 April 2015 (issued every 30 minutes, with the page automatically refreshed every 10 minutes)

About weather observations | Map of weather stations | Latest weather observations for VIC | Other Formats
Station Details ID: 085072 Name: EAST SALE AIRPORT Lat: -38.12 Lon: 147.13 Height: 4.6 m
Data from the previous 72 hours. | See also: Recent months at East Sale
Date/Time
EST
Temp
°C
App
Temp
°C
Dew
Point
Rel
Hum
%
Delta-T
°C
Wind Press
QNH
hPa
Press
MSL
hPa
Rain
since 9 am
mm
Dir
 
Spd
km/h
Gust
km/h
Spd
kts
Gust
kts
21/09:30pm 11.6 9.6 8.8 83 1.4 SW 9 11 5 6 1030.2 1030.2 0.0
21/09:00pm 11.9 10.0 9.1 83 1.4 SW 9 11 5 6 1030.2 1030.2 0.0
21/08:30pm 11.8 9.6 9.4 85 1.2 SSW 11 11 6 6 1030.2 1030.2 0.0
21/08:00pm 11.7 9.3 8.7 82 1.5 SW 11 11 6 6 1030.3 1030.3 0.0
21/07:30pm 12.1 10.1 8.6 79 1.7 SSW 9 11 5 6 1030.4 1030.4 0.0
21/07:00pm 12.1 10.1 8.8 80 1.6 SW 9 11 5 6 1030.5 1030.5 0.0
21/06:30pm 11.6 9.8 7.9 78 1.8 S 7 9 4 5 1030.6 1030.6 0.0
21/06:00pm 11.1 8.8 7.6 79 1.7 SSE 9 11 5 6 1030.4 1030.4 0.0
21/05:30pm 12.7 9.7 7.8 72 2.4 SSE 13 15 7 8 1030.4 1030.4 0.0
21/05:00pm 14.0 10.6 7.8 66 3.0 SE 15 22 8 12 1030.3 1030.3 0.0
21/04:30pm 15.0 11.1 7.1 59 3.9 SE 17 22 9 12 1030.3 1030.3 0.0
21/04:00pm 15.5 11.6 7.3 58 4.0 SE 17 22 9 12 1030.4 1030.4 0.0
21/03:30pm 16.1 11.7 6.5 53 4.7 ESE 19 26 10 14 1030.4 1030.4 0.0
21/03:00pm 16.0 11.5 6.2 52 4.7 E 19 30 10 16 1030.6 1030.6 0.0
21/02:30pm 16.3 11.5 4.7 46 5.5 ESE 19 26 10 14 1030.6 1030.6 0.0
21/02:00pm 16.8 12.7 6.0 49 5.2 ESE 17 24 9 13 1030.7 1030.7 0.0
21/01:30pm 15.6 11.4 5.8 52 4.7 ESE 17 22 9 12 1030.9 1030.9 0.0
21/01:00pm 15.7 12.3 7.7 59 4.0 SE 15 24 8 13 1031.2 1031.2 0.0
21/12:30pm 15.9 11.8 6.3 53 4.7 SE 17 22 9 12 1031.6 1031.6 0.0
21/12:00pm 15.0 12.2 6.8 58 4.0 SE 11 17 6 9 1031.9 1031.9 0.0
21/11:30am 15.3 13.4 7.6 60 3.8 ESE 7 11 4 6 1032.3 1032.3 0.0
21/11:00am 15.1 13.1 7.2 59 3.9 S 7 13 4 7 1032.7 1032.7 0.0
21/10:30am 14.2 12.5 8.4 68 2.9 W 7 11 4 6 1032.9 1032.9 0.0
21/09:00am 9.7 6.5 6.8 82 1.3 NW 13 15 7 8 1033.9 1033.9 0.0
21/08:30am 7.8 4.7 5.4 85 1.1 NW 11 13 6 7 1034.0 1034.0 0.0
21/07:00am 2.9 -0.9 2.0 94 0.3 WNW 11 13 6 7 1033.7 1033.7 0.0
21/06:30am 3.2 -0.9 2.3 94 0.4 WNW 13 13 7 7 1033.9 1033.9 0.0
21/06:00am 3.0 -0.7 2.1 94 0.3 NW 11 13 6 7 1033.7 1033.7 0.0
21/05:30am 3.4 0.1 2.5 94 0.4 NW 9 11 5 6 1033.5 1033.5 0.0
21/05:00am 3.6 -0.1 2.6 93 0.4 NW 11 13 6 7 1033.3 1033.3 0.0
21/04:30am 4.0 0.0 2.8 92 0.5 NW 13 13 7 7 1033.3 1033.3 0.0
21/04:00am 4.1 0.1 2.8 91 0.5 NNW 13 13 7 7 1033.2 1033.2 0.0
21/03:30am 4.8 1.7 3.5 91 0.5 W 9 11 5 6 1033.0 1033.0 0.0
21/03:00am 4.7 1.5 3.2 90 0.6 WNW 9 11 5 6 1033.3 1033.3 0.0
21/02:30am 4.8 1.6 3.3 90 0.6 WNW 9 11 5 6 1033.5 1033.5 0.0
21/02:00am 5.0 1.8 3.3 89 0.7 W 9 11 5 6 1033.9 1033.9 0.0
21/01:30am 4.2 1.0 2.9 91 0.5 WNW 9 11 5 6 1034.4 1034.4 0.0
21/01:00am 4.4 0.8 2.8 89 0.6 NW 11 11 6 6 1034.7 1034.7 0.0
21/12:30am 4.3 0.7 2.7 89 0.6 NW 11 11 6 6 1034.8 1034.8 0.0
21/12:00am 4.5 0.8 2.5 87 0.8 NW 11 11 6 6 1034.9 1034.9 0.0
 
Date/Time
EST
Temp
°C
App
Temp
°C
Dew
Point
Rel
Hum
%
Delta-T
°C
Wind Press
QNH
hPa
Press
MSL
hPa
Rain
since 9 am
mm
Dir
 
Spd
km/h
Gust
km/h
Spd
kts
Gust
kts
20/11:30pm 7.0 3.9 3.8 80 1.4 WSW 9 11 5 6 1034.8 1034.8 0.0
20/11:00pm 7.9 4.2 4.3 78 1.5 SSW 13 15 7 8 1035.0 1035.0 0.0
20/10:30pm 7.2 3.5 4.2 81 1.3 SW 13 13 7 7 1035.1 1035.1 0.0
20/10:00pm 7.2 3.9 4.3 82 1.2 SSW 11 13 6 7 1035.4 1035.4 0.0
20/09:30pm 7.4 4.1 4.4 81 1.3 SSW 11 13 6 7 1035.5 1035.5 0.0
20/09:00pm 7.9 4.1 3.8 75 1.7 SSW 13 15 7 8 1035.5 1035.5 0.0
20/08:30pm 8.4 4.8 2.8 68 2.4 SSW 11 13 6 7 1035.5 1035.5 0.0
20/08:00pm 7.5 4.3 3.2 74 1.8 SSW 9 9 5 5 1035.5 1035.5 0.0
20/07:30pm 8.5 5.8 3.6 71 2.1 SSW 7 9 4 5 1035.4 1035.4 0.0
20/07:00pm 9.0 5.6 4.2 72 2.1 S 11 13 6 7 1035.3 1035.3 0.0
20/06:30pm 8.9 5.6 4.3 73 2.0 S 11 13 6 7 1035.2 1035.2 0.0
20/06:00pm 9.9 6.3 4.9 71 2.2 S 13 15 7 8 1034.9 1034.9 0.0
20/05:30pm 12.3 8.5 5.7 64 3.1 SSE 15 19 8 10 1034.8 1034.8 0.0
20/05:00pm 13.2 9.4 5.6 60 3.5 SSE 15 19 8 10 1034.8 1034.8 0.0
20/04:30pm 12.8 9.1 6.2 64 3.1 SSE 15 20 8 11 1034.6 1034.6 0.0
20/04:00pm 13.9 9.2 5.3 56 4.0 SSE 19 24 10 13 1034.6 1034.6 0.0
20/03:30pm 14.7 9.9 5.5 54 4.4 SSE 20 30 11 16 1034.5 1034.5 0.0
20/03:00pm 14.6 9.4 5.7 55 4.2 SSE 22 28 12 15 1034.8 1034.8 0.0
20/02:30pm 14.6 9.9 6.2 57 4.0 SE 20 28 11 15 1034.8 1034.8 0.0
20/02:00pm 15.4 9.9 5.9 53 4.5 SSE 24 33 13 18 1034.8 1034.8 0.0
20/01:30pm 14.4 9.8 6.3 58 3.9 SE 20 28 11 15 1034.9 1034.9 0.0
20/01:00pm 15.8 10.4 6.3 53 4.6 SSE 24 30 13 16 1035.2 1035.2 0.0
20/12:30pm 15.4 10.5 6.7 56 4.2 SSE 22 30 12 16 1035.4 1035.4 0.0
20/12:00pm 15.6 11.1 8.4 62 3.6 SSE 22 32 12 17 1035.8 1035.8 0.0
20/11:30am 13.6 10.5 7.2 65 3.1 SSW 13 19 7 10 1036.3 1036.3 0.0
20/11:00am 13.2 10.6 6.3 63 3.2 SW 9 15 5 8 1036.6 1036.6 0.0
20/10:30am 12.5 9.8 5.4 62 3.3 WSW 9 15 5 8 1036.6 1036.6 0.0
20/10:00am 12.6 10.0 6.0 64 3.1 NW 9 13 5 7 1036.7 1036.7 0.0
20/09:30am 11.1 8.6 8.1 82 1.5 WNW 11 15 6 8 1036.8 1036.8 0.0
20/09:00am 10.3 7.4 6.6 78 1.7 NW 11 13 6 7 1037.0 1037.0 2.4
20/08:30am 8.7 5.3 6.0 83 1.2 WNW 13 15 7 8 1036.8 1036.8 2.4
20/08:00am 6.4 2.8 5.0 91 0.6 WNW 13 17 7 9 1036.6 1036.6 2.4
20/07:30am 4.8 0.6 3.8 93 0.4 WNW 15 17 8 9 1036.4 1036.4 2.4
20/07:00am 4.5 0.6 3.3 92 0.5 NW 13 15 7 8 1036.1 1036.1 2.4
20/06:30am 4.8 0.6 3.6 92 0.5 WNW 15 17 8 9 1035.8 1035.8 2.4
20/06:00am 4.9 0.3 3.9 93 0.4 WNW 17 20 9 11 1035.5 1035.5 2.4
20/05:30am 4.6 0.3 3.4 92 0.5 NW 15 17 8 9 1035.5 1035.5 2.2
20/05:00am 4.4 0.5 3.2 92 0.5 NW 13 15 7 8 1035.1 1035.1 2.2
20/04:30am 4.3 0.0 3.4 94 0.4 NW 15 17 8 9 1034.7 1034.7 2.2
20/04:00am 4.6 1.1 3.4 92 0.5 NNW 11 13 6 7 1034.5 1034.5 2.2
20/03:30am 5.2 1.7 3.7 90 0.6 W 11 13 6 7 1034.2 1034.2 2.2
20/03:00am 5.6 2.6 4.2 91 0.6 W 9 11 5 6 1034.2 1034.2 2.2
20/02:30am 6.9 3.7 5.1 88 0.8 WSW 11 17 6 9 1034.3 1034.3 2.2
20/02:04am 8.0 5.0 6.1 88 0.9 WSW 11 13 6 7 1034.2 1034.2 2.2
20/02:00am 8.3 5.4 6.3 87 0.9 SW 11 17 6 9 1034.3 1034.3 2.2
20/01:42am 7.3 3.1 5.9 91 0.6 SSW 17 28 9 15 1034.7 1034.7 1.4
20/01:30am 6.4 3.0 4.2 86 0.9 SE 11 15 6 8 1034.8 1034.8 0.6
20/01:00am 6.4 1.7 3.0 79 1.4 W 17 20 9 11 1034.4 1034.4 0.6
20/12:30am 7.1 1.9 3.3 77 1.6 W 20 24 11 13 1034.2 1034.2 0.6
20/12:00am 7.2 2.9 3.3 76 1.6 W 15 22 8 12 1034.2 1034.2 0.6
 
Date/Time
EST
Temp
°C
App
Temp
°C
Dew
Point
Rel
Hum
%
Delta-T
°C
Wind Press
QNH
hPa
Press
MSL
hPa
Rain
since 9 am
mm
Dir
 
Spd
km/h
Gust
km/h
Spd
kts
Gust
kts
19/11:30pm 7.1 2.4 3.3 77 1.6 W 17 20 9 11 1034.3 1034.3 0.6
19/11:00pm 7.7 3.1 3.9 77 1.6 W 17 20 9 11 1034.2 1034.2 0.6
19/10:30pm 7.5 3.3 3.6 76 1.7 W 15 19 8 10 1034.1 1034.1 0.6
19/10:00pm 6.8 3.5 2.7 75 1.7 WNW 9 13 5 7 1033.9 1033.9 0.6
19/09:30pm 8.4 3.9 4.0 74 1.9 WSW 17 22 9 12 1033.7 1033.7 0.6
19/09:00pm 8.2 4.8 3.9 74 1.8 WSW 11 20 6 11 1033.7 1033.7 0.6
19/08:30pm 8.8 5.3 3.4 69 2.3 WSW 11 15 6 8 1033.2 1033.2 0.6
19/08:00pm 7.7 4.8 4.7 81 1.3 S 9 13 5 7 1032.9 1032.9 0.6
19/07:30pm 8.8 4.0 4.4 74 1.9 WSW 19 28 10 15 1032.1 1032.1 0.6
19/07:00pm 9.0 4.7 3.4 68 2.4 WSW 15 19 8 10 1031.8 1031.8 0.6
19/06:30pm 9.6 4.7 4.0 68 2.5 SW 19 22 10 12 1031.2 1031.2 0.6
19/06:00pm 10.9 6.7 3.7 61 3.1 SW 15 20 8 11 1030.6 1030.6 0.6
19/05:30pm 11.8 6.6 3.3 56 3.7 SSW 20 30 11 16 1030.1 1030.1 0.6
19/05:00pm 12.6 6.6 3.3 53 4.1 SSW 24 35 13 19 1029.4 1029.4 0.6
19/04:30pm 13.2 5.9 2.4 48 4.7 SW 30 41 16 22 1028.8 1028.8 0.6
19/04:00pm 13.6 5.8 3.1 49 4.6 SSW 33 44 18 24 1028.2 1028.2 0.6
19/03:30pm 14.2 6.0 2.5 45 5.2 SW 35 46 19 25 1027.7 1027.7 0.6
19/03:00pm 14.7 7.2 3.2 46 5.1 SSW 32 46 17 25 1027.5 1027.5 0.6
19/02:30pm 14.6 7.1 4.6 51 4.6 SSW 33 44 18 24 1027.0 1027.0 0.6
19/02:00pm 15.1 7.3 4.8 50 4.8 SSW 35 43 19 23 1026.6 1026.6 0.6
19/01:30pm 15.4 8.1 5.6 52 4.7 SSW 33 48 18 26 1026.2 1026.2 0.6
19/01:00pm 15.3 8.9 6.8 57 4.1 SW 30 39 16 21 1025.7 1025.7 0.6
19/12:30pm 15.2 9.8 6.5 56 4.2 SW 24 35 13 19 1025.7 1025.7 0.6
19/12:00pm 13.2 8.8 7.4 68 2.8 WSW 20 30 11 16 1026.1 1026.1 0.4
19/11:30am 11.5 7.1 7.6 77 1.9 WSW 20 28 11 15 1025.9 1025.9 0.4
19/11:09am 10.5 4.1 5.3 70 2.4 WSW 28 46 15 25 1026.0 1026.0 0.2
19/11:00am 13.6 9.3 7.8 68 2.8 W 20 28 11 15 1025.6 1025.6 0.0
19/10:30am 13.4 7.2 8.0 70 2.7 W 30 39 16 21 1025.2 1025.2 0.0
19/10:00am 12.2 6.6 7.1 71 2.4 W 26 37 14 20 1025.1 1025.1 0.0
19/09:30am 11.7 6.2 7.6 76 2.0 W 26 37 14 20 1024.7 1024.7 0.0
19/09:00am 11.9 6.5 7.8 76 2.0 W 26 41 14 22 1024.0 1024.0 1.6
19/08:30am 11.1 5.7 7.8 80 1.6 W 26 33 14 18 1023.4 1023.4 1.6
19/08:00am 10.4 5.3 7.5 82 1.4 W 24 33 13 18 1022.8 1022.8 1.6
19/07:30am 9.8 5.6 7.4 85 1.1 W 19 24 10 13 1022.1 1022.1 1.6
19/07:00am 9.1 4.8 7.2 88 0.9 W 19 24 10 13 1021.5 1021.5 1.6
19/06:30am 9.2 4.9 7.2 87 0.9 W 19 24 10 13 1020.8 1020.8 1.6
19/06:00am 9.3 5.8 7.4 88 0.9 WNW 15 19 8 10 1020.1 1020.1 1.6
19/05:30am 9.5 5.8 7.8 89 0.8 WNW 17 20 9 11 1019.7 1019.7 1.6
19/05:00am 10.0 6.3 8.1 88 0.9 WNW 17 20 9 11 1019.4 1019.4 1.6
19/04:30am 10.5 6.9 8.4 87 1.0 WNW 17 22 9 12 1018.6 1018.6 1.6
19/04:00am 10.6 7.1 8.9 89 0.8 W 17 20 9 11 1018.3 1018.3 1.6
19/03:30am 10.7 6.9 9.0 89 0.8 W 19 24 10 13 1018.0 1018.0 1.6
19/03:00am 10.7 6.7 9.1 90 0.8 W 20 26 11 14 1017.8 1017.8 1.6
19/02:30am 10.8 7.0 9.2 90 0.8 W 19 24 10 13 1017.8 1017.8 1.4
19/02:00am 10.7 7.3 9.0 89 0.8 W 17 22 9 12 1017.7 1017.7 1.2
19/01:30am 10.7 6.9 9.0 89 0.8 W 19 26 10 14 1017.6 1017.6 1.2
19/01:00am 10.8 7.0 9.1 89 0.8 W 19 26 10 14 1017.4 1017.4 1.0
19/12:30am 11.1 6.0 9.2 88 0.9 W 26 37 14 20 1017.1 1017.1 0.8
19/12:00am 11.4 7.0 9.0 85 1.2 W 22 35 12 19 1016.8 1016.8 0.6
 
Date/Time
EST
Temp
°C
App
Temp
°C
Dew
Point
Rel
Hum
%
Delta-T
°C
Wind Press
QNH
hPa
Press
MSL
hPa
Rain
since 9 am
mm
Dir
 
Spd
km/h
Gust
km/h
Spd
kts
Gust
kts
18/11:30pm 11.8 6.8 9.5 86 1.2 W 26 39 14 21 1016.3 1016.3 0.6
18/11:00pm 12.5 7.9 9.5 82 1.5 W 24 32 13 17 1016.2 1016.2 0.6
18/10:30pm 12.8 8.9 10.7 87 1.1 WSW 22 28 12 15 1015.7 1015.7 0.6
18/10:00pm 13.4 8.7 10.8 84 1.4 WSW 26 33 14 18 1015.1 1015.1 0.2
18/09:50pm 13.8 9.9 10.8 82 1.6 SW 22 35 12 19 1014.9 1014.9 0.2

Other Formats:

Comma delimited format used in spreadsheet applications
http://www.bom.gov.au/fwo/IDV60801/IDV60801.94907.axf

JavaScript Object Notation format (JSON) in row-major order
http://www.bom.gov.au/fwo/IDV60801/IDV60801.94907.json